Time;durP1;ratioP1;P1;durP2;ratioP2;P2;SDS_P1;SDS_P2;PMS_P1;PMS_P2;Temp;Humidity;BMP_temperature;BMP_pressure;BME280_temperature;BME280_humidity;BME280_pressure;Samples;Min_cycle;Max_cycle;Signal;HPM_P1;HPM_P2
2023/09/29 00:00:17;;;;;;;13.00;8.90;;;14.70;99.90;;;;;;4992465;28;20457;-53
2023/09/29 00:02:45;;;;;;;9.80;8.87;;;14.70;99.90;;;;;;4989524;28;21225;-53
2023/09/29 00:05:15;;;;;;;18.80;8.90;;;14.70;99.90;;;;;;4991651;28;20456;-52
2023/09/29 00:07:42;;;;;;;17.73;9.47;;;14.60;99.90;;;;;;4992204;28;20494;-52
2023/09/29 00:10:10;;;;;;;14.83;9.03;;;14.60;99.90;;;;;;4991663;28;20460;-52
2023/09/29 00:12:40;;;;;;;9.77;8.87;;;14.60;99.90;;;;;;4992913;28;20456;-53
2023/09/29 00:15:09;;;;;;;9.20;8.30;;;14.60;99.90;;;;;;4992230;28;20531;-52
2023/09/29 00:17:35;;;;;;;11.73;7.90;;;14.50;99.90;;;;;;4991449;28;20464;-52
2023/09/29 00:20:08;;;;;;;10.97;8.50;;;14.50;99.90;;;;;;4991510;28;20460;-53
2023/09/29 00:22:34;;;;;;;11.30;9.17;;;14.50;99.90;;;;;;4991409;28;20481;-53
2023/09/29 00:25:01;;;;;;;9.97;8.97;;;14.50;99.90;;;;;;4991638;28;20484;-52
2023/09/29 00:27:28;;;;;;;13.00;9.43;;;14.50;99.90;;;;;;4991066;28;20465;-52
2023/09/29 00:29:56;;;;;;;11.03;8.70;;;14.50;99.90;;;;;;4991592;28;20994;-52
2023/09/29 00:32:22;;;;;;;9.80;8.80;;;14.50;99.90;;;;;;4992562;28;20479;-53
2023/09/29 00:34:49;;;;;;;14.07;9.40;;;14.50;99.90;;;;;;4990959;28;20488;-53
2023/09/29 00:37:16;;;;;;;11.13;10.03;;;14.50;99.90;;;;;;4990256;28;20468;-52
2023/09/29 00:39:43;;;;;;;9.33;8.43;;;14.40;99.90;;;;;;4991103;28;20544;-52
2023/09/29 00:42:11;;;;;;;11.73;9.87;;;14.30;99.90;;;;;;4991387;28;20520;-51
2023/09/29 00:44:39;;;;;;;11.77;8.60;;;14.40;99.90;;;;;;4992013;28;20945;-51
2023/09/29 00:47:07;;;;;;;11.47;9.80;;;14.40;99.90;;;;;;4990432;28;20465;-52
2023/09/29 00:49:35;;;;;;;13.43;9.60;;;14.40;99.90;;;;;;4990396;28;20469;-52
2023/09/29 00:52:03;;;;;;;10.80;9.10;;;14.40;99.90;;;;;;4989914;28;20464;-52
2023/09/29 00:54:31;;;;;;;12.60;9.07;;;14.40;99.90;;;;;;4990988;28;20570;-52
2023/09/29 00:56:59;;;;;;;15.73;9.33;;;14.40;99.90;;;;;;4990455;28;20515;-53
2023/09/29 00:59:27;;;;;;;14.50;8.80;;;14.40;99.90;;;;;;4990689;28;20464;-52
2023/09/29 01:01:53;;;;;;;11.10;9.90;;;14.40;99.90;;;;;;4990901;28;20535;-52
2023/09/29 01:04:21;;;;;;;15.60;8.87;;;14.40;99.90;;;;;;4988600;28;20456;-52
2023/09/29 01:06:49;;;;;;;9.97;8.90;;;14.30;99.90;;;;;;4990173;28;20468;-53
2023/09/29 01:09:16;;;;;;;11.43;8.63;;;14.40;99.90;;;;;;4988006;28;20464;-53
2023/09/29 01:11:43;;;;;;;15.00;9.23;;;14.30;99.90;;;;;;4989913;28;20457;-52
2023/09/29 01:14:11;;;;;;;14.67;10.30;;;14.30;99.90;;;;;;4990246;28;20492;-53
2023/09/29 01:16:38;;;;;;;16.60;9.67;;;14.30;99.90;;;;;;4991680;28;20464;-51
2023/09/29 01:19:11;;;;;;;11.17;9.13;;;14.30;99.90;;;;;;4990413;28;20516;-51
2023/09/29 01:21:39;;;;;;;10.13;9.20;;;14.20;99.90;;;;;;4989168;28;20465;-53
2023/09/29 01:24:08;;;;;;;10.40;9.17;;;14.30;99.90;;;;;;4987349;28;20993;-52
2023/09/29 01:26:35;;;;;;;13.60;9.27;;;14.30;99.90;;;;;;4991264;28;20452;-52
2023/09/29 01:29:01;;;;;;;27.17;9.77;;;14.30;99.90;;;;;;4988262;28;20457;-52
2023/09/29 01:31:28;;;;;;;9.83;8.93;;;14.20;99.90;;;;;;4990377;28;20848;-52
2023/09/29 01:33:55;;;;;;;15.27;9.30;;;14.30;99.90;;;;;;4991298;28;20472;-52
2023/09/29 01:36:21;;;;;;;12.43;10.00;;;14.30;99.90;;;;;;4995374;28;20484;-51
2023/09/29 01:38:49;;;;;;;11.70;9.63;;;14.20;99.90;;;;;;4993389;28;20495;-52
2023/09/29 01:41:17;;;;;;;11.73;9.77;;;14.30;99.90;;;;;;4992397;28;20468;-52
2023/09/29 01:43:45;;;;;;;17.60;9.67;;;14.30;99.90;;;;;;4993340;28;20485;-51
2023/09/29 01:46:15;;;;;;;11.00;8.93;;;14.30;99.90;;;;;;4994469;28;20824;-52
2023/09/29 01:48:41;;;;;;;13.63;10.20;;;14.20;99.90;;;;;;4995487;28;20472;-51
2023/09/29 01:51:08;;;;;;;13.73;9.77;;;14.20;99.90;;;;;;4995460;28;20445;-51
2023/09/29 01:53:34;;;;;;;11.50;9.50;;;14.20;99.90;;;;;;4994504;28;20910;-53
2023/09/29 01:56:02;;;;;;;10.30;9.30;;;14.20;99.90;;;;;;4993709;28;20530;-51
2023/09/29 01:58:31;;;;;;;14.10;10.20;;;14.30;99.90;;;;;;4995640;28;20453;-51
2023/09/29 02:00:58;;;;;;;11.47;10.33;;;14.20;99.90;;;;;;4993485;28;20555;-53
2023/09/29 02:03:25;;;;;;;11.47;10.37;;;14.30;99.90;;;;;;4995503;28;20554;-51
2023/09/29 02:05:51;;;;;;;11.17;9.73;;;14.30;99.90;;;;;;4995424;28;20444;-51
2023/09/29 02:08:18;;;;;;;16.23;10.60;;;14.30;99.90;;;;;;4993810;28;20464;-51
2023/09/29 02:10:45;;;;;;;12.97;11.60;;;14.30;99.90;;;;;;4995069;28;20887;-51
2023/09/29 02:13:12;;;;;;;12.57;11.37;;;14.40;99.90;;;;;;4992737;28;21104;-52
2023/09/29 02:15:41;;;;;;;13.23;11.83;;;14.40;99.90;;;;;;4995205;28;20534;-52
2023/09/29 02:18:09;;;;;;;13.90;11.57;;;14.40;99.90;;;;;;4994151;28;20848;-51
2023/09/29 02:20:38;;;;;;;12.40;11.10;;;14.40;99.90;;;;;;4993314;28;20464;-53
2023/09/29 02:23:07;;;;;;;12.10;10.90;;;14.50;99.90;;;;;;4994619;28;20473;-53
2023/09/29 02:25:33;;;;;;;13.63;12.00;;;14.50;99.90;;;;;;4995338;28;20809;-52
2023/09/29 02:28:01;;;;;;;22.33;12.00;;;14.40;99.90;;;;;;4994249;28;20464;-52
2023/09/29 02:30:28;;;;;;;18.43;12.20;;;14.50;99.90;;;;;;4993106;28;20938;-52
2023/09/29 02:32:56;;;;;;;15.53;12.53;;;14.50;99.90;;;;;;4994794;28;20579;-53
2023/09/29 02:35:23;;;;;;;14.37;11.07;;;14.50;99.90;;;;;;4985490;28;21041;-51
2023/09/29 02:37:52;;;;;;;25.70;12.90;;;14.50;99.90;;;;;;4994767;28;20895;-51
2023/09/29 02:40:19;;;;;;;18.33;12.60;;;14.50;99.90;;;;;;4993545;28;20515;-52
2023/09/29 02:42:46;;;;;;;15.27;12.57;;;14.50;99.90;;;;;;4994755;28;20507;-52
2023/09/29 02:45:13;;;;;;;17.83;13.43;;;14.50;99.90;;;;;;4994239;28;20453;-53
2023/09/29 02:47:41;;;;;;;17.00;12.83;;;14.50;99.90;;;;;;4990759;28;20473;-51
2023/09/29 02:50:10;;;;;;;14.87;12.00;;;14.50;99.90;;;;;;4991275;28;20490;-51
2023/09/29 02:52:37;;;;;;;14.50;12.00;;;14.50;99.90;;;;;;4990976;28;20974;-52
2023/09/29 02:55:05;;;;;;;17.07;12.00;;;14.50;99.90;;;;;;4991454;28;21001;-52
2023/09/29 02:57:33;;;;;;;17.03;12.27;;;14.50;99.90;;;;;;4992010;28;21001;-53
2023/09/29 02:59:59;;;;;;;14.23;11.57;;;14.50;99.90;;;;;;4993500;28;20495;-53
2023/09/29 03:02:26;;;;;;;12.40;11.00;;;14.50;99.90;;;;;;4991825;28;20504;-51
2023/09/29 03:04:53;;;;;;;15.00;11.70;;;14.50;99.90;;;;;;4992095;28;20838;-53
2023/09/29 03:07:20;;;;;;;18.20;12.67;;;14.50;99.90;;;;;;4990710;28;20880;-53
2023/09/29 03:09:47;;;;;;;13.07;10.97;;;14.50;99.90;;;;;;4993049;28;20464;-52
2023/09/29 03:12:16;;;;;;;12.57;11.20;;;14.50;99.90;;;;;;4992438;28;20484;-53
2023/09/29 03:14:43;;;;;;;34.17;12.47;;;14.50;99.90;;;;;;4993947;28;20441;-52
2023/09/29 03:17:09;;;;;;;18.00;13.00;;;14.40;99.90;;;;;;4993978;28;20503;-52
2023/09/29 03:19:36;;;;;;;14.07;11.20;;;14.50;99.90;;;;;;4992731;28;20962;-53
2023/09/29 03:22:03;;;;;;;13.57;12.27;;;14.40;99.90;;;;;;4993014;28;20507;-52
2023/09/29 03:24:34;;;;;;;15.37;11.17;;;14.40;99.90;;;;;;4992544;28;20967;-51
2023/09/29 03:27:00;;;;;;;14.93;11.60;;;14.40;99.90;;;;;;4989521;28;20453;-53
2023/09/29 03:29:27;;;;;;;16.63;11.80;;;14.40;99.90;;;;;;4993787;28;20444;-51
2023/09/29 03:31:54;;;;;;;13.13;11.43;;;14.40;99.90;;;;;;4993418;28;20448;-51
2023/09/29 03:34:21;;;;;;;13.63;11.67;;;14.40;99.90;;;;;;4992961;28;20457;-51
2023/09/29 03:36:50;;;;;;;16.63;11.70;;;14.50;99.90;;;;;;4992471;28;20543;-53
2023/09/29 03:39:18;;;;;;;14.23;11.93;;;14.50;99.90;;;;;;4991595;28;20468;-51
2023/09/29 03:41:46;;;;;;;17.30;12.20;;;14.50;99.90;;;;;;4993262;28;20962;-52
2023/09/29 03:44:13;;;;;;;18.63;11.70;;;14.50;99.90;;;;;;4993399;28;20465;-52
2023/09/29 03:46:39;;;;;;;23.67;12.23;;;14.60;99.90;;;;;;4992215;28;20461;-51
2023/09/29 03:49:06;;;;;;;12.57;11.30;;;14.60;99.90;;;;;;4991596;28;20919;-52
2023/09/29 03:51:33;;;;;;;18.63;10.80;;;14.60;99.90;;;;;;4993449;28;20507;-52
2023/09/29 03:54:00;;;;;;;14.77;10.80;;;14.60;99.90;;;;;;4993176;28;20856;-52
2023/09/29 03:56:27;;;;;;;12.40;11.17;;;14.60;99.90;;;;;;4991968;28;21096;-53
2023/09/29 03:58:55;;;;;;;20.10;11.63;;;14.60;99.90;;;;;;4992111;28;20514;-53
2023/09/29 04:01:22;;;;;;;20.83;11.50;;;14.70;99.90;;;;;;4992324;28;20469;-52
2023/09/29 04:03:49;;;;;;;16.17;12.47;;;14.60;99.90;;;;;;4990874;28;20489;-52
2023/09/29 04:06:16;;;;;;;14.57;10.97;;;14.60;99.90;;;;;;4991685;28;20464;-53
2023/09/29 04:08:42;;;;;;;16.57;11.67;;;14.60;99.90;;;;;;4992909;28;20815;-53
2023/09/29 04:11:10;;;;;;;21.87;13.00;;;14.60;99.90;;;;;;4990049;28;20512;-52
2023/09/29 04:13:37;;;;;;;19.60;11.30;;;14.60;99.90;;;;;;4991636;28;20481;-52
2023/09/29 04:16:06;;;;;;;18.37;12.70;;;14.50;99.90;;;;;;4990958;28;20492;-52
2023/09/29 04:18:33;;;;;;;12.33;11.13;;;14.50;99.90;;;;;;4991960;28;20499;-51
2023/09/29 04:21:01;;;;;;;19.60;11.77;;;14.50;99.90;;;;;;4990161;28;20444;-51
2023/09/29 04:23:28;;;;;;;14.10;11.90;;;14.50;99.90;;;;;;4990167;28;20488;-52
2023/09/29 04:25:55;;;;;;;12.97;11.47;;;14.50;99.90;;;;;;4986416;28;20461;-52
2023/09/29 04:28:21;;;;;;;14.80;13.30;;;14.50;99.90;;;;;;4990293;28;20461;-52
2023/09/29 04:30:48;;;;;;;12.97;11.60;;;14.50;99.90;;;;;;4986011;28;20460;-53
2023/09/29 04:33:16;;;;;;;15.93;12.00;;;14.40;99.90;;;;;;4986776;28;20488;-53
2023/09/29 04:35:42;;;;;;;23.10;11.60;;;14.40;99.90;;;;;;4986340;28;20488;-52
2023/09/29 04:38:09;;;;;;;19.27;11.43;;;14.40;99.90;;;;;;4992234;28;20465;-54
2023/09/29 04:40:37;;;;;;;13.90;12.50;;;14.40;99.90;;;;;;4991562;28;20511;-53
2023/09/29 04:43:05;;;;;;;14.63;12.70;;;14.50;99.90;;;;;;4991032;28;20483;-53
2023/09/29 04:45:33;;;;;;;15.20;11.13;;;14.40;99.90;;;;;;4988922;28;20453;-53
2023/09/29 04:48:00;;;;;;;14.20;12.10;;;14.40;99.90;;;;;;4984980;28;20456;-53
2023/09/29 04:50:28;;;;;;;13.80;11.87;;;14.50;99.90;;;;;;4988681;28;20942;-52
2023/09/29 04:52:55;;;;;;;15.70;12.17;;;14.50;99.90;;;;;;4981747;28;20557;-51
2023/09/29 04:55:22;;;;;;;12.77;11.47;;;14.40;99.90;;;;;;4985813;28;20519;-51
2023/09/29 04:57:50;;;;;;;15.80;11.40;;;14.40;99.90;;;;;;4991200;28;20468;-51
2023/09/29 05:00:17;;;;;;;14.73;12.07;;;14.50;99.90;;;;;;4989204;28;20911;-52
2023/09/29 05:02:44;;;;;;;15.43;13.33;;;14.50;99.90;;;;;;4991600;28;20475;-53
2023/09/29 05:05:10;;;;;;;15.97;12.40;;;14.50;99.90;;;;;;4986142;28;20480;-52
2023/09/29 05:07:38;;;;;;;22.33;14.73;;;14.50;99.90;;;;;;4990704;28;20831;-54
2023/09/29 05:10:06;;;;;;;14.80;12.77;;;14.50;99.90;;;;;;4987417;28;20519;-56
2023/09/29 05:12:33;;;;;;;23.30;13.50;;;14.50;99.90;;;;;;4987021;28;20572;-54
2023/09/29 05:15:00;;;;;;;14.17;12.80;;;14.50;99.90;;;;;;4989657;28;20493;-54
2023/09/29 05:17:26;;;;;;;21.40;14.50;;;14.60;99.90;;;;;;4981553;28;20488;-54
2023/09/29 05:19:53;;;;;;;20.73;14.90;;;14.70;99.90;;;;;;4988790;28;20460;-54
2023/09/29 05:22:21;;;;;;;19.03;13.90;;;14.80;99.90;;;;;;4989020;28;20488;-55
2023/09/29 05:24:49;;;;;;;16.27;14.10;;;14.80;99.90;;;;;;4984144;28;22650;-55
2023/09/29 05:27:16;;;;;;;15.73;14.00;;;14.80;99.90;;;;;;4988743;28;20471;-54
2023/09/29 05:29:42;;;;;;;15.53;13.40;;;14.80;99.90;;;;;;4999384;28;20460;-54
2023/09/29 05:32:09;;;;;;;17.97;13.33;;;14.80;99.90;;;;;;4990638;28;21193;-53
2023/09/29 05:34:35;;;;;;;26.47;14.03;;;14.90;99.90;;;;;;4986314;28;20839;-51
2023/09/29 05:37:02;;;;;;;18.80;13.27;;;14.90;99.90;;;;;;4989330;28;20973;-52
2023/09/29 05:39:29;;;;;;;24.27;14.80;;;15.00;99.90;;;;;;4986267;28;20472;-51
2023/09/29 05:41:57;;;;;;;16.53;13.70;;;15.10;99.90;;;;;;4989576;28;20526;-53
2023/09/29 05:44:23;;;;;;;23.30;13.80;;;15.30;99.90;;;;;;4991223;28;20461;-51
2023/09/29 05:46:50;;;;;;;20.00;14.33;;;15.40;99.90;;;;;;4990116;28;20464;-51
2023/09/29 05:49:16;;;;;;;24.23;13.10;;;15.50;99.90;;;;;;4990816;28;20472;-53
2023/09/29 05:51:43;;;;;;;19.20;12.57;;;15.60;99.90;;;;;;4988751;28;20464;-51
2023/09/29 05:54:10;;;;;;;17.83;13.77;;;15.70;93.30;;;;;;4979082;28;20475;-52
2023/09/29 05:56:36;;;;;;;21.50;13.93;;;15.80;24.80;;;;;;4990528;28;21025;-52
2023/09/29 05:59:05;;;;;;;18.97;14.33;;;15.80;34.40;;;;;;4987450;28;20465;-51
2023/09/29 06:01:31;;;;;;;27.27;12.50;;;15.90;49.70;;;;;;4987371;28;20465;-51
2023/09/29 06:03:58;;;;;;;17.73;14.40;;;15.90;54.20;;;;;;4987648;28;20493;-51
2023/09/29 06:06:25;;;;;;;15.67;13.50;;;16.00;56.80;;;;;;4977806;28;20796;-53
2023/09/29 06:08:51;;;;;;;15.07;13.10;;;16.10;57.00;;;;;;4989712;28;20527;-53
2023/09/29 06:11:18;;;;;;;17.60;13.30;;;16.10;58.90;;;;;;4990735;28;20523;-51
2023/09/29 06:13:45;;;;;;;14.70;13.10;;;16.20;59.80;;;;;;4986208;28;20519;-52
2023/09/29 06:16:12;;;;;;;26.33;13.70;;;16.10;66.40;;;;;;4988476;28;20476;-52
2023/09/29 06:18:39;;;;;;;14.13;12.73;;;16.20;65.00;;;;;;4989625;28;20468;-53
2023/09/29 06:21:06;;;;;;;16.00;12.07;;;16.20;63.70;;;;;;4987927;28;20461;-52
2023/09/29 06:23:32;;;;;;;15.60;13.40;;;16.30;67.40;;;;;;4990580;28;20476;-53
2023/09/29 06:25:59;;;;;;;21.60;12.47;;;16.30;69.70;;;;;;4979502;28;20484;-51
2023/09/29 06:28:26;;;;;;;14.53;11.43;;;16.40;72.30;;;;;;4990121;28;20967;-52
2023/09/29 06:30:53;;;;;;;14.40;11.00;;;16.40;68.00;;;;;;4986719;28;20467;-52
2023/09/29 06:33:21;;;;;;;16.73;11.10;;;16.40;72.40;;;;;;4991675;28;20514;-52
2023/09/29 06:35:48;;;;;;;16.80;10.23;;;16.50;73.80;;;;;;4990383;28;20497;-53
2023/09/29 06:38:15;;;;;;;16.00;10.30;;;16.50;76.80;;;;;;4988574;28;21044;-53
2023/09/29 06:40:43;;;;;;;16.67;10.57;;;16.50;78.90;;;;;;4985408;28;20841;-53
2023/09/29 06:43:09;;;;;;;18.47;10.10;;;16.60;85.60;;;;;;4990040;28;21029;-53
2023/09/29 06:45:36;;;;;;;15.90;11.30;;;16.60;92.30;;;;;;4989741;28;20464;-52
2023/09/29 06:48:04;;;;;;;20.20;10.90;;;16.70;93.10;;;;;;4991276;28;20519;-54
2023/09/29 06:50:32;;;;;;;19.73;11.17;;;16.80;93.70;;;;;;4990245;28;22766;-52
2023/09/29 06:52:59;;;;;;;16.30;9.87;;;16.80;97.30;;;;;;4997696;28;20483;-53
2023/09/29 06:55:25;;;;;;;12.80;10.50;;;16.90;97.10;;;;;;4991377;28;20982;-52
2023/09/29 06:57:52;;;;;;;14.70;10.33;;;16.90;99.90;;;;;;4993012;28;20897;-52
2023/09/29 07:00:19;;;;;;;15.13;10.00;;;16.90;97.60;;;;;;4991416;28;20534;-52
2023/09/29 07:02:45;;;;;;;19.13;9.83;;;17.00;95.50;;;;;;4993120;28;20535;-53
2023/09/29 07:05:12;;;;;;;16.83;10.17;;;17.00;98.50;;;;;;4990902;28;20818;-53
2023/09/29 07:07:40;;;;;;;17.23;9.83;;;17.10;97.20;;;;;;4990951;28;20467;-53
2023/09/29 07:10:09;;;;;;;11.10;9.90;;;17.20;99.40;;;;;;4986937;28;20468;-53
2023/09/29 07:12:35;;;;;;;12.80;8.90;;;17.30;99.90;;;;;;4989378;28;20484;-53
2023/09/29 07:15:03;;;;;;;18.57;9.63;;;17.40;99.90;;;;;;4989856;28;20468;-53
2023/09/29 07:17:29;;;;;;;10.10;9.00;;;17.40;99.90;;;;;;4991710;28;20538;-53
2023/09/29 07:19:56;;;;;;;22.73;10.83;;;17.50;99.90;;;;;;4992795;28;20461;-53
2023/09/29 07:22:22;;;;;;;16.37;9.67;;;17.50;99.90;;;;;;4988189;28;20485;-52
2023/09/29 07:24:52;;;;;;;12.47;8.93;;;17.70;99.90;;;;;;4992175;28;20523;-54
2023/09/29 07:27:19;;;;;;;12.70;9.03;;;17.70;99.90;;;;;;4985097;28;20521;-54
2023/09/29 07:29:46;;;;;;;15.57;8.40;;;17.80;99.90;;;;;;4991521;28;20527;-52
2023/09/29 07:32:12;;;;;;;14.63;8.13;;;17.90;99.90;;;;;;4993407;28;20473;-53
2023/09/29 07:34:39;;;;;;;21.47;9.23;;;18.00;99.90;;;;;;4992354;28;20548;-53
2023/09/29 07:37:05;;;;;;;11.43;8.23;;;18.00;99.90;;;;;;4987736;28;20512;-52
2023/09/29 07:39:32;;;;;;;10.30;7.80;;;18.10;99.90;;;;;;4992093;28;20975;-53
2023/09/29 07:42:00;;;;;;;10.10;7.80;;;18.20;99.90;;;;;;4987523;28;20826;-53
2023/09/29 07:44:26;;;;;;;14.07;7.30;;;18.20;99.90;;;;;;4990816;28;20464;-53
2023/09/29 07:46:53;;;;;;;10.60;7.40;;;18.40;99.90;;;;;;4986861;28;20448;-53
2023/09/29 07:49:21;;;;;;;16.07;8.70;;;18.40;99.90;;;;;;4990892;28;21004;-53
2023/09/29 07:51:49;;;;;;;15.60;6.70;;;18.50;99.90;;;;;;4989620;28;20473;-53
2023/09/29 07:54:16;;;;;;;27.97;7.50;;;18.60;99.90;;;;;;4989138;28;20487;-52
2023/09/29 07:56:47;;;;;;;13.53;7.83;;;18.60;99.90;;;;;;4990485;28;20869;-53
2023/09/29 07:59:15;;;;;;;28.13;7.67;;;18.60;99.90;;;;;;4990911;28;20464;-52
2023/09/29 08:01:42;;;;;;;21.20;7.83;;;18.70;99.90;;;;;;4991573;28;20465;-52
2023/09/29 08:04:09;;;;;;;12.50;7.13;;;18.70;99.90;;;;;;4991447;28;20508;-53
2023/09/29 08:06:36;;;;;;;16.33;8.07;;;18.70;99.90;;;;;;4991220;28;20457;-51
2023/09/29 08:09:03;;;;;;;8.70;7.70;;;18.70;99.90;;;;;;4991604;28;21029;-52
2023/09/29 08:11:30;;;;;;;15.63;7.77;;;18.70;99.90;;;;;;4989214;28;20515;-51
2023/09/29 08:13:56;;;;;;;12.13;6.40;;;18.80;99.90;;;;;;4989668;28;20488;-51
2023/09/29 08:16:25;;;;;;;7.37;6.40;;;18.80;99.90;;;;;;4990634;28;20527;-51
2023/09/29 08:18:51;;;;;;;14.03;7.37;;;18.90;99.90;;;;;;4991610;28;20468;-51
2023/09/29 08:21:18;;;;;;;10.57;6.13;;;18.90;99.90;;;;;;4989679;28;20468;-52
2023/09/29 08:23:44;;;;;;;9.30;6.97;;;19.00;99.90;;;;;;4992647;28;20531;-52
2023/09/29 08:26:11;;;;;;;11.10;6.67;;;19.00;99.90;;;;;;4991177;28;20465;-52
2023/09/29 08:28:38;;;;;;;12.90;6.47;;;19.00;99.90;;;;;;4992032;28;20461;-52
2023/09/29 08:31:13;;;;;;;14.23;6.20;;;19.00;99.90;;;;;;4990012;28;20461;-52
2023/09/29 08:33:41;;;;;;;17.93;8.03;;;19.10;99.90;;;;;;4987891;28;20519;-51
2023/09/29 08:36:08;;;;;;;11.50;7.07;;;19.10;99.90;;;;;;4991388;28;20464;-52
2023/09/29 08:38:35;;;;;;;14.03;6.67;;;19.10;99.90;;;;;;4992272;28;20998;-51
2023/09/29 08:41:03;;;;;;;12.83;6.30;;;19.20;99.90;;;;;;4990807;28;20475;-52
2023/09/29 08:43:31;;;;;;;10.37;6.70;;;19.20;99.90;;;;;;4991014;28;20480;-51
2023/09/29 08:45:59;;;;;;;15.50;6.37;;;19.20;99.90;;;;;;4989284;28;20929;-51
2023/09/29 08:48:28;;;;;;;18.67;6.30;;;19.20;99.90;;;;;;4982732;28;20493;-52
2023/09/29 08:50:56;;;;;;;15.30;6.10;;;19.20;99.90;;;;;;4991321;28;20959;-52
2023/09/29 08:53:26;;;;;;;8.47;6.70;;;19.20;99.90;;;;;;4989470;28;20481;-51
2023/09/29 08:55:55;;;;;;;15.20;6.47;;;19.30;99.90;;;;;;4989302;28;20460;-51
2023/09/29 08:58:23;;;;;;;16.63;6.83;;;19.20;99.90;;;;;;4987897;28;20512;-52
2023/09/29 09:00:50;;;;;;;8.37;6.87;;;19.30;99.90;;;;;;4988868;28;20464;-52
2023/09/29 09:03:18;;;;;;;29.40;6.20;;;19.20;99.90;;;;;;4991702;28;20464;-52
2023/09/29 09:05:44;;;;;;;20.90;5.63;;;19.20;99.90;;;;;;4988362;28;20496;-52
2023/09/29 09:08:12;;;;;;;16.10;6.77;;;19.20;99.90;;;;;;4988084;28;20456;-52
2023/09/29 09:10:40;;;;;;;13.77;6.30;;;19.30;99.90;;;;;;4985090;28;20586;-51
2023/09/29 09:13:08;;;;;;;11.77;6.30;;;19.40;99.90;;;;;;4988715;28;20484;-52
2023/09/29 09:15:35;;;;;;;12.23;6.20;;;19.30;99.90;;;;;;4986252;28;20523;-52
2023/09/29 09:18:02;;;;;;;13.80;7.20;;;19.40;99.90;;;;;;4988589;28;20493;-51
2023/09/29 09:20:29;;;;;;;17.27;7.17;;;19.40;99.90;;;;;;4985962;28;20475;-52
2023/09/29 09:22:59;;;;;;;20.53;7.10;;;19.50;99.90;;;;;;4996314;28;20488;-52
2023/09/29 09:25:35;;;;;;;11.10;6.50;;;19.50;99.90;;;;;;4988155;28;20461;-51
2023/09/29 09:28:02;;;;;;;26.47;6.07;;;19.50;99.90;;;;;;4994057;28;20514;-51
2023/09/29 09:30:35;;;;;;;9.60;6.13;;;19.50;99.90;;;;;;4989395;28;20504;-52
2023/09/29 09:33:03;;;;;;;9.70;6.00;;;19.50;99.90;;;;;;4988049;28;20484;-51
2023/09/29 09:35:30;;;;;;;12.80;6.50;;;19.50;99.90;;;;;;4988153;28;20468;-52
2023/09/29 09:37:59;;;;;;;9.03;6.80;;;19.50;99.90;;;;;;4990934;28;20504;-52
2023/09/29 09:40:26;;;;;;;8.30;6.43;;;19.50;99.90;;;;;;4986576;28;20544;-52
2023/09/29 09:42:54;;;;;;;11.17;6.77;;;19.50;99.90;;;;;;4989260;28;20484;-51
2023/09/29 09:45:25;;;;;;;12.00;5.67;;;19.60;99.90;;;;;;4990036;28;20461;-51
2023/09/29 09:47:57;;;;;;;10.73;5.90;;;19.60;99.90;;;;;;4988256;28;20487;-52
2023/09/29 09:50:26;;;;;;;23.23;6.17;;;19.60;99.90;;;;;;4985285;28;20462;-52
2023/09/29 09:52:54;;;;;;;14.63;5.70;;;19.70;99.90;;;;;;4993022;28;20494;-51
2023/09/29 09:55:28;;;;;;;8.83;6.43;;;19.80;99.90;;;;;;4987995;28;20465;-51
2023/09/29 09:57:57;;;;;;;13.30;6.37;;;19.90;99.90;;;;;;4987044;28;20519;-52
2023/09/29 10:00:24;;;;;;;13.37;5.33;;;20.00;99.90;;;;;;4992535;28;20468;-51
2023/09/29 10:02:56;;;;;;;8.70;6.37;;;20.10;99.90;;;;;;4990946;28;20571;-51
2023/09/29 10:05:26;;;;;;;11.10;6.87;;;20.10;99.90;;;;;;4993230;28;20540;-51
2023/09/29 10:07:55;;;;;;;15.13;6.23;;;20.20;99.90;;;;;;4992606;28;20789;-52
2023/09/29 10:10:27;;;;;;;7.37;5.93;;;20.20;99.90;;;;;;4989693;28;20464;-52
2023/09/29 10:12:56;;;;;;;16.80;6.00;;;20.20;99.90;;;;;;4992582;28;20500;-51
2023/09/29 10:15:22;;;;;;;12.67;6.87;;;20.10;99.90;;;;;;4992237;28;20464;-51
2023/09/29 10:17:49;;;;;;;6.63;5.83;;;20.10;99.90;;;;;;4992012;28;20484;-52
2023/09/29 10:20:20;;;;;;;8.37;5.97;;;20.00;99.90;;;;;;4991618;28;20946;-52
2023/09/29 10:22:54;;;;;;;11.13;6.43;;;19.90;98.80;;;;;;4994295;28;20488;-52
2023/09/29 10:25:20;;;;;;;15.67;6.70;;;19.90;90.60;;;;;;4995544;28;20470;-51
2023/09/29 10:27:49;;;;;;;10.93;6.27;;;19.90;77.00;;;;;;4993606;28;20523;-51
2023/09/29 10:30:17;;;;;;;12.90;7.03;;;19.90;75.20;;;;;;4993472;28;20464;-51
2023/09/29 10:32:48;;;;;;;13.67;7.10;;;19.90;72.00;;;;;;4993489;28;20875;-51
2023/09/29 10:35:19;;;;;;;12.23;7.00;;;20.00;64.00;;;;;;4990206;28;20467;-51
2023/09/29 10:37:49;;;;;;;15.03;6.93;;;20.20;64.00;;;;;;4990694;28;20485;-52
2023/09/29 10:40:25;;;;;;;19.03;6.70;;;20.20;65.20;;;;;;4993808;28;20440;-52
2023/09/29 10:42:56;;;;;;;15.20;6.47;;;20.30;63.70;;;;;;4991651;28;22250;-51
2023/09/29 10:45:36;;;;;;;12.30;6.43;;;20.40;66.90;;;;;;4989337;28;20464;-52
2023/09/29 10:48:05;;;;;;;20.20;7.00;;;20.50;75.80;;;;;;4987298;28;20453;-53
2023/09/29 10:50:39;;;;;;;11.13;6.87;;;20.60;78.10;;;;;;4992266;28;20826;-51
2023/09/29 10:53:06;;;;;;;13.33;6.50;;;20.60;99.90;;;;;;4991160;28;20511;-52
2023/09/29 10:55:34;;;;;;;12.70;6.50;;;20.60;99.90;;;;;;4992578;28;20472;-52
2023/09/29 10:58:02;;;;;;;12.27;7.13;;;20.60;99.90;;;;;;4990001;28;20626;-51
2023/09/29 11:00:31;;;;;;;12.63;7.50;;;20.50;99.90;;;;;;4992662;28;20468;-52
2023/09/29 11:02:57;;;;;;;13.73;6.70;;;20.50;99.90;;;;;;4992998;28;20583;-51
2023/09/29 11:05:24;;;;;;;9.47;7.30;;;20.50;99.90;;;;;;4986492;28;20538;-53
2023/09/29 11:07:52;;;;;;;16.33;7.60;;;20.50;99.90;;;;;;4992335;28;20461;-54
2023/09/29 11:10:20;;;;;;;12.43;6.80;;;20.40;99.90;;;;;;4987861;28;20981;-54
2023/09/29 11:12:47;;;;;;;19.93;8.20;;;20.40;99.90;;;;;;4990898;28;20488;-54
2023/09/29 11:15:14;;;;;;;11.07;6.80;;;20.40;95.00;;;;;;4990760;28;20543;-53
2023/09/29 11:17:47;;;;;;;15.90;6.57;;;20.40;91.00;;;;;;4991965;28;20480;-53
2023/09/29 11:20:16;;;;;;;14.27;7.20;;;20.30;92.00;;;;;;4988801;28;20488;-54
2023/09/29 11:22:45;;;;;;;16.43;6.80;;;20.30;95.00;;;;;;4990563;28;20608;-54
2023/09/29 11:25:17;;;;;;;6.90;6.20;;;20.40;88.40;;;;;;4990382;28;20535;-53
2023/09/29 11:27:49;;;;;;;7.83;6.90;;;20.40;95.00;;;;;;4991019;28;20469;-53
2023/09/29 11:30:16;;;;;;;16.97;6.70;;;20.50;95.10;;;;;;4991348;28;20469;-52
2023/09/29 11:32:43;;;;;;;10.00;5.70;;;20.50;90.00;;;;;;4991856;28;20511;-53
2023/09/29 11:35:13;;;;;;;14.73;5.97;;;20.60;88.60;;;;;;4990789;28;20492;-53
2023/09/29 11:37:40;;;;;;;9.43;6.83;;;20.60;90.60;;;;;;4987328;28;20484;-53
2023/09/29 11:40:11;;;;;;;8.73;6.10;;;20.70;89.50;;;;;;4989243;28;20515;-53
2023/09/29 11:42:38;;;;;;;6.40;5.33;;;20.70;91.00;;;;;;4988855;28;20484;-54
2023/09/29 11:45:08;;;;;;;12.30;5.73;;;20.70;99.90;;;;;;4985892;28;21040;-52
2023/09/29 11:47:35;;;;;;;9.57;6.10;;;20.80;99.90;;;;;;4991079;28;20464;-54
2023/09/29 11:50:02;;;;;;;10.43;6.03;;;20.90;99.90;;;;;;4987711;28;20491;-52
2023/09/29 11:52:30;;;;;;;25.83;5.80;;;21.00;99.90;;;;;;4992077;28;20489;-53
2023/09/29 11:54:57;;;;;;;23.63;6.50;;;21.10;99.90;;;;;;4991801;28;20467;-53
2023/09/29 11:57:23;;;;;;;12.40;5.87;;;21.20;99.90;;;;;;4990721;28;20816;-54
2023/09/29 11:59:50;;;;;;;7.63;4.97;;;21.20;99.90;;;;;;4992074;28;20493;-54
2023/09/29 12:02:16;;;;;;;7.40;4.87;;;21.30;99.90;;;;;;4991042;28;20485;-53
2023/09/29 12:04:43;;;;;;;8.00;5.60;;;21.30;99.90;;;;;;4991657;28;20500;-53
2023/09/29 12:07:10;;;;;;;8.30;5.70;;;21.30;99.90;;;;;;4993137;28;20445;-53
2023/09/29 12:09:38;;;;;;;6.67;4.60;;;21.30;99.90;;;;;;4989992;28;20487;-54
2023/09/29 12:12:05;;;;;;;8.37;5.43;;;21.20;99.90;;;;;;4987972;28;20469;-53
2023/09/29 12:14:32;;;;;;;8.10;5.67;;;21.20;99.90;;;;;;4987007;28;20461;-54
2023/09/29 12:17:00;;;;;;;8.43;5.97;;;21.20;99.90;;;;;;4990530;28;20472;-53
2023/09/29 12:19:27;;;;;;;6.70;5.93;;;21.20;99.90;;;;;;4989811;28;20534;-53
2023/09/29 12:21:55;;;;;;;9.63;4.77;;;21.20;99.90;;;;;;4989788;28;20471;-54
2023/09/29 12:24:22;;;;;;;15.73;5.63;;;21.20;99.90;;;;;;4988739;28;20543;-54
2023/09/29 12:26:49;;;;;;;14.33;5.13;;;21.10;99.90;;;;;;4986299;28;20523;-53
2023/09/29 12:29:16;;;;;;;6.60;5.90;;;21.10;99.90;;;;;;4985858;28;20456;-53
2023/09/29 12:31:43;;;;;;;7.77;5.20;;;21.00;99.90;;;;;;4982011;28;20925;-54
2023/09/29 12:34:09;;;;;;;9.17;5.60;;;20.90;99.90;;;;;;4983068;28;20575;-54